sensor_id;sensor_type;location;lat;lon;timestamp;pressure;altitude;pressure_sealevel;temperature;humidity
20228;BME280;12195;55.790;37.572;2024-03-02T00:00:36;101045.48;;;5.61;69.02
20228;BME280;12195;55.790;37.572;2024-03-02T00:03:11;101054.17;;;5.62;69.13
20228;BME280;12195;55.790;37.572;2024-03-02T00:05:50;101048.98;;;5.60;69.13
20228;BME280;12195;55.790;37.572;2024-03-02T00:08:27;101044.64;;;5.61;68.96
20228;BME280;12195;55.790;37.572;2024-03-02T00:11:00;101048.98;;;5.60;69.01
20228;BME280;12195;55.790;37.572;2024-03-02T00:13:34;101042.94;;;5.60;68.99
20228;BME280;12195;55.790;37.572;2024-03-02T00:16:08;101040.34;;;5.58;69.21
20228;BME280;12195;55.790;37.572;2024-03-02T00:18:40;101043.55;;;5.78;69.93
20228;BME280;12195;55.790;37.572;2024-03-02T00:21:14;101042.05;;;5.61;69.15
20228;BME280;12195;55.790;37.572;2024-03-02T00:23:49;101046.39;;;5.59;69.25
20228;BME280;12195;55.790;37.572;2024-03-02T00:26:23;101040.34;;;5.58;69.44
20228;BME280;12195;55.790;37.572;2024-03-02T00:28:57;101036.04;;;5.56;69.39
20228;BME280;12195;55.790;37.572;2024-03-02T00:31:29;101035.16;;;5.55;69.21
20228;BME280;12195;55.790;37.572;2024-03-02T00:34:03;101036.89;;;5.55;69.32
20228;BME280;12195;55.790;37.572;2024-03-02T00:36:37;101042.17;;;5.52;69.04
20228;BME280;12195;55.790;37.572;2024-03-02T00:39:12;101035.20;;;5.51;69.15
20228;BME280;12195;55.790;37.572;2024-03-02T00:41:45;101036.12;;;5.48;69.12
20228;BME280;12195;55.790;37.572;2024-03-02T00:44:19;101037.88;;;5.48;69.08
20228;BME280;12195;55.790;37.572;2024-03-02T00:46:53;101033.52;;;5.47;69.31
20228;BME280;12195;55.790;37.572;2024-03-02T00:49:26;101032.70;;;5.45;69.39
20228;BME280;12195;55.790;37.572;2024-03-02T00:52:00;101038.73;;;5.47;69.65
20228;BME280;12195;55.790;37.572;2024-03-02T00:54:33;101038.73;;;5.47;69.75
20228;BME280;12195;55.790;37.572;2024-03-02T00:57:06;101036.99;;;5.49;69.93
20228;BME280;12195;55.790;37.572;2024-03-02T00:59:40;101040.42;;;5.51;69.39
20228;BME280;12195;55.790;37.572;2024-03-02T01:02:12;101047.39;;;5.50;69.62
20228;BME280;12195;55.790;37.572;2024-03-02T01:04:44;101047.37;;;5.52;70.02
20228;BME280;12195;55.790;37.572;2024-03-02T01:07:17;101047.39;;;5.50;69.84
20228;BME280;12195;55.790;37.572;2024-03-02T01:09:49;101049.11;;;5.51;69.58
20228;BME280;12195;55.790;37.572;2024-03-02T01:12:21;101061.24;;;5.52;69.57
20228;BME280;12195;55.790;37.572;2024-03-02T01:14:54;101054.33;;;5.50;69.61
20228;BME280;12195;55.790;37.572;2024-03-02T01:17:28;101054.33;;;5.50;69.57
20228;BME280;12195;55.790;37.572;2024-03-02T01:20:00;101050.84;;;5.51;69.85
20228;BME280;12195;55.790;37.572;2024-03-02T01:22:33;101055.22;;;5.49;69.45
20228;BME280;12195;55.790;37.572;2024-03-02T01:25:06;101052.62;;;5.49;69.63
20228;BME280;12195;55.790;37.572;2024-03-02T01:27:40;101056.95;;;5.48;69.11
20228;BME280;12195;55.790;37.572;2024-03-02T01:30:12;101058.66;;;5.51;70.01
20228;BME280;12195;55.790;37.572;2024-03-02T01:32:45;101050.91;;;5.48;69.53
20228;BME280;12195;55.790;37.572;2024-03-02T01:35:18;101050.91;;;5.46;69.49
20228;BME280;12195;55.790;37.572;2024-03-02T01:37:51;101051.80;;;5.45;69.55
20228;BME280;12195;55.790;37.572;2024-03-02T01:40:24;101049.16;;;5.47;69.65
20228;BME280;12195;55.790;37.572;2024-03-02T01:42:59;101050.91;;;5.46;69.41
20228;BME280;12195;55.790;37.572;2024-03-02T01:45:35;101050.91;;;5.48;69.50
20228;BME280;12195;55.790;37.572;2024-03-02T01:48:08;101045.70;;;5.48;69.62
20228;BME280;12195;55.790;37.572;2024-03-02T01:50:41;101051.76;;;5.47;69.14
20228;BME280;12195;55.790;37.572;2024-03-02T01:53:13;101050.04;;;5.46;69.04
20228;BME280;12195;55.790;37.572;2024-03-02T01:55:46;101050.02;;;5.49;69.39
20228;BME280;12195;55.790;37.572;2024-03-02T01:58:18;101050.91;;;5.46;69.30
20228;BME280;12195;55.790;37.572;2024-03-02T02:00:50;101054.34;;;5.48;69.72
20228;BME280;12195;55.790;37.572;2024-03-02T02:03:23;101047.44;;;5.46;69.23
20228;BME280;12195;55.790;37.572;2024-03-02T02:05:56;101048.31;;;5.46;69.40
20228;BME280;12195;55.790;37.572;2024-03-02T02:08:28;101043.99;;;5.45;69.30
20228;BME280;12195;55.790;37.572;2024-03-02T02:11:01;101058.75;;;5.45;69.12
20228;BME280;12195;55.790;37.572;2024-03-02T02:13:34;101059.62;;;5.45;69.49
20228;BME280;12195;55.790;37.572;2024-03-02T02:16:07;101056.12;;;5.46;69.61
20228;BME280;12195;55.790;37.572;2024-03-02T02:18:40;101058.73;;;5.46;69.61
20228;BME280;12195;55.790;37.572;2024-03-02T02:21:13;101055.25;;;5.46;69.41
20228;BME280;12195;55.790;37.572;2024-03-02T02:23:47;101056.97;;;5.47;69.28
20228;BME280;12195;55.790;37.572;2024-03-02T02:26:20;101056.97;;;5.47;69.33
20228;BME280;12195;55.790;37.572;2024-03-02T02:28:52;101060.45;;;5.47;69.62
20228;BME280;12195;55.790;37.572;2024-03-02T02:31:25;101057.84;;;5.47;69.36
20228;BME280;12195;55.790;37.572;2024-03-02T02:33:57;101063.92;;;5.48;69.35
20228;BME280;12195;55.790;37.572;2024-03-02T02:36:31;101064.78;;;5.47;69.48
20228;BME280;12195;55.790;37.572;2024-03-02T02:39:05;101069.16;;;5.45;69.03
20228;BME280;12195;55.790;37.572;2024-03-02T02:41:38;101070.03;;;5.45;69.22
20228;BME280;12195;55.790;37.572;2024-03-02T02:44:10;101068.28;;;5.44;69.09
20228;BME280;12195;55.790;37.572;2024-03-02T02:46:44;101074.40;;;5.42;68.97
20228;BME280;12195;55.790;37.572;2024-03-02T02:49:16;101075.30;;;5.39;68.90
20228;BME280;12195;55.790;37.572;2024-03-02T02:51:48;101070.13;;;5.36;69.04
20228;BME280;12195;55.790;37.572;2024-03-02T02:54:25;101068.41;;;5.35;68.70
20228;BME280;12195;55.790;37.572;2024-03-02T02:56:58;101071.90;;;5.34;68.85
20228;BME280;12195;55.790;37.572;2024-03-02T02:59:31;101074.52;;;5.33;69.28
20228;BME280;12195;55.790;37.572;2024-03-02T03:02:03;101071.92;;;5.31;69.13
20228;BME280;12195;55.790;37.572;2024-03-02T03:04:36;101066.72;;;5.31;69.19
20228;BME280;12195;55.790;37.572;2024-03-02T03:07:08;101068.48;;;5.31;69.18
20228;BME280;12195;55.790;37.572;2024-03-02T03:09:41;101071.09;;;5.31;69.16
20228;BME280;12195;55.790;37.572;2024-03-02T03:12:14;101071.92;;;5.31;69.15
20228;BME280;12195;55.790;37.572;2024-03-02T03:14:47;101080.61;;;5.32;69.05
20228;BME280;12195;55.790;37.572;2024-03-02T03:17:20;101082.34;;;5.31;68.97
20228;BME280;12195;55.790;37.572;2024-03-02T03:19:53;101089.31;;;5.31;68.90
20228;BME280;12195;55.790;37.572;2024-03-02T03:22:26;101092.74;;;5.33;68.90
20228;BME280;12195;55.790;37.572;2024-03-02T03:24:59;101082.33;;;5.33;68.70
20228;BME280;12195;55.790;37.572;2024-03-02T03:27:33;101086.70;;;5.31;68.55
20228;BME280;12195;55.790;37.572;2024-03-02T03:30:06;101082.35;;;5.30;68.64
20228;BME280;12195;55.790;37.572;2024-03-02T03:32:38;101077.16;;;5.28;68.24
20228;BME280;12195;55.790;37.572;2024-03-02T03:35:11;101076.34;;;5.25;68.63
20228;BME280;12195;55.790;37.572;2024-03-02T03:37:44;101075.47;;;5.24;68.85
20228;BME280;12195;55.790;37.572;2024-03-02T03:40:17;101079.83;;;5.24;68.86
20228;BME280;12195;55.790;37.572;2024-03-02T03:42:50;101068.55;;;5.23;68.72
20228;BME280;12195;55.790;37.572;2024-03-02T03:45:23;101074.63;;;5.24;68.94
20228;BME280;12195;55.790;37.572;2024-03-02T03:47:57;101069.42;;;5.24;68.97
20228;BME280;12195;55.790;37.572;2024-03-02T03:50:29;101055.52;;;5.25;68.78
20228;BME280;12195;55.790;37.572;2024-03-02T03:53:03;101065.05;;;5.24;68.74
20228;BME280;12195;55.790;37.572;2024-03-02T03:55:35;101068.55;;;5.23;68.88
20228;BME280;12195;55.790;37.572;2024-03-02T03:58:08;101065.94;;;5.23;68.91
20228;BME280;12195;55.790;37.572;2024-03-02T04:00:41;101064.22;;;5.22;68.88
20228;BME280;12195;55.790;37.572;2024-03-02T04:03:14;101065.11;;;5.21;68.65
20228;BME280;12195;55.790;37.572;2024-03-02T04:05:47;101058.16;;;5.20;68.63
20228;BME280;12195;55.790;37.572;2024-03-02T04:08:20;101059.92;;;5.20;68.62
20228;BME280;12195;55.790;37.572;2024-03-02T04:10:52;101062.51;;;5.21;68.86
20228;BME280;12195;55.790;37.572;2024-03-02T04:13:25;101064.23;;;5.21;68.92
20228;BME280;12195;55.790;37.572;2024-03-02T04:15:58;101063.34;;;5.22;68.50
20228;BME280;12195;55.790;37.572;2024-03-02T04:18:31;101067.73;;;5.20;68.68
20228;BME280;12195;55.790;37.572;2024-03-02T04:21:06;101064.27;;;5.18;68.29
20228;BME280;12195;55.790;37.572;2024-03-02T04:23:39;101076.45;;;5.16;68.46
20228;BME280;12195;55.790;37.572;2024-03-02T04:26:12;101074.73;;;5.15;68.80
20228;BME280;12195;55.790;37.572;2024-03-02T04:28:46;101065.17;;;5.14;68.95
20228;BME280;12195;55.790;37.572;2024-03-02T04:31:18;101072.13;;;5.15;68.89
20228;BME280;12195;55.790;37.572;2024-03-02T04:33:51;101070.36;;;5.17;68.52
20228;BME280;12195;55.790;37.572;2024-03-02T04:36:25;101072.09;;;5.16;68.60
20228;BME280;12195;55.790;37.572;2024-03-02T04:38:58;101079.05;;;5.17;68.60
20228;BME280;12195;55.790;37.572;2024-03-02T04:41:30;101072.09;;;5.16;68.67
20228;BME280;12195;55.790;37.572;2024-03-02T04:44:03;101076.45;;;5.16;68.46
20228;BME280;12195;55.790;37.572;2024-03-02T04:46:35;101079.05;;;5.16;68.72
20228;BME280;12195;55.790;37.572;2024-03-02T04:49:08;101078.17;;;5.17;68.80
20228;BME280;12195;55.790;37.572;2024-03-02T04:51:41;101072.07;;;5.18;68.67
20228;BME280;12195;55.790;37.572;2024-03-02T04:54:13;101065.14;;;5.18;68.86
20228;BME280;12195;55.790;37.572;2024-03-02T04:56:47;101074.66;;;5.21;68.57
20228;BME280;12195;55.790;37.572;2024-03-02T04:59:22;101068.57;;;5.20;68.70
20228;BME280;12195;55.790;37.572;2024-03-02T05:01:55;101072.02;;;5.24;68.61
20228;BME280;12195;55.790;37.572;2024-03-02T05:04:32;101076.34;;;5.25;68.54
20228;BME280;12195;55.790;37.572;2024-03-02T05:07:06;101074.60;;;5.27;68.38
20228;BME280;12195;55.790;37.572;2024-03-02T05:09:40;101077.14;;;5.30;68.37
20228;BME280;12195;55.790;37.572;2024-03-02T05:12:13;101069.34;;;5.30;68.29
20228;BME280;12195;55.790;37.572;2024-03-02T05:14:47;101066.72;;;5.31;68.19
20228;BME280;12195;55.790;37.572;2024-03-02T05:17:20;101067.53;;;5.35;67.98
20228;BME280;12195;55.790;37.572;2024-03-02T05:19:53;101065.79;;;5.37;67.69
20228;BME280;12195;55.790;37.572;2024-03-02T05:22:26;101064.88;;;5.39;67.87
20228;BME280;12195;55.790;37.572;2024-03-02T05:24:58;101064.86;;;5.42;67.54
20228;BME280;12195;55.790;37.572;2024-03-02T05:27:32;101066.56;;;5.45;67.80
20228;BME280;12195;55.790;37.572;2024-03-02T05:30:07;101074.95;;;5.68;68.43
20228;BME280;12195;55.790;37.572;2024-03-02T05:32:40;101068.16;;;5.55;67.57
20228;BME280;12195;55.790;37.572;2024-03-02T05:35:13;101071.63;;;5.55;67.50
20228;BME280;12195;55.790;37.572;2024-03-02T05:37:46;101069.02;;;5.57;67.30
20228;BME280;12195;55.790;37.572;2024-03-02T05:40:18;101077.42;;;5.78;68.23
20228;BME280;12195;55.790;37.572;2024-03-02T05:42:53;101076.69;;;5.67;67.52
20228;BME280;12195;55.790;37.572;2024-03-02T05:45:32;101082.73;;;5.69;67.46
20228;BME280;12195;55.790;37.572;2024-03-02T05:48:11;101080.11;;;5.71;67.33
20228;BME280;12195;55.790;37.572;2024-03-02T05:50:41;101078.39;;;5.70;66.91
20228;BME280;12195;55.790;37.572;2024-03-02T05:53:14;101080.98;;;5.71;67.15
20228;BME280;12195;55.790;37.572;2024-03-02T05:55:47;101079.25;;;5.72;67.05
20228;BME280;12195;55.790;37.572;2024-03-02T05:58:21;101087.91;;;5.72;66.80
20228;BME280;12195;55.790;37.572;2024-03-02T06:01:01;101095.45;;;5.95;67.17
20228;BME280;12195;55.790;37.572;2024-03-02T06:03:34;101093.90;;;5.79;66.66
20228;BME280;12195;55.790;37.572;2024-03-02T06:06:07;101095.62;;;5.80;67.10
20228;BME280;12195;55.790;37.572;2024-03-02T06:08:40;101089.58;;;5.81;67.01
20228;BME280;12195;55.790;37.572;2024-03-02T06:11:14;101088.64;;;5.87;67.25
20228;BME280;12195;55.790;37.572;2024-03-02T06:13:47;101097.27;;;5.90;66.82
20228;BME280;12195;55.790;37.572;2024-03-02T06:16:20;101096.34;;;5.94;66.41
20228;BME280;12195;55.790;37.572;2024-03-02T06:18:53;101090.20;;;5.98;66.60
20228;BME280;12195;55.790;37.572;2024-03-02T06:21:26;101089.31;;;5.99;66.61
20228;BME280;12195;55.790;37.572;2024-03-02T06:24:00;101088.42;;;6.00;66.09
20228;BME280;12195;55.790;37.572;2024-03-02T06:26:32;101093.61;;;6.03;66.50
20228;BME280;12195;55.790;37.572;2024-03-02T06:29:05;101094.46;;;6.05;65.94
20228;BME280;12195;55.790;37.572;2024-03-02T06:31:39;101090.92;;;6.09;66.33
20228;BME280;12195;55.790;37.572;2024-03-02T06:34:11;101092.61;;;6.13;66.07
20228;BME280;12195;55.790;37.572;2024-03-02T06:36:44;101088.17;;;6.18;65.78
20228;BME280;12195;55.790;37.572;2024-03-02T06:39:17;101089.86;;;6.22;65.97
20228;BME280;12195;55.790;37.572;2024-03-02T06:41:50;101078.42;;;6.29;66.00
20228;BME280;12195;55.790;37.572;2024-03-02T06:44:23;101079.98;;;6.42;66.38
20228;BME280;12195;55.790;37.572;2024-03-02T06:46:56;101087.56;;;6.56;66.21
20228;BME280;12195;55.790;37.572;2024-03-02T06:49:28;101082.16;;;6.66;65.74
20228;BME280;12195;55.790;37.572;2024-03-02T06:52:02;101080.22;;;6.79;65.28
20228;BME280;12195;55.790;37.572;2024-03-02T06:54:37;101090.50;;;6.88;64.70
20228;BME280;12195;55.790;37.572;2024-03-02T06:57:09;101090.45;;;6.91;63.01
20228;BME280;12195;55.790;37.572;2024-03-02T06:59:41;101086.90;;;6.95;63.43
20228;BME280;12195;55.790;37.572;2024-03-02T07:02:14;101094.70;;;6.96;63.44
20228;BME280;12195;55.790;37.572;2024-03-02T07:04:47;101089.48;;;6.96;62.76
20228;BME280;12195;55.790;37.572;2024-03-02T07:07:20;101085.16;;;6.95;62.84
20228;BME280;12195;55.790;37.572;2024-03-02T07:09:53;101082.47;;;6.98;63.32
20228;BME280;12195;55.790;37.572;2024-03-02T07:12:25;101096.33;;;7.03;63.24
20228;BME280;12195;55.790;37.572;2024-03-02T07:14:58;101101.45;;;7.08;62.83
20228;BME280;12195;55.790;37.572;2024-03-02T07:17:38;101097.09;;;7.08;62.53
20228;BME280;12195;55.790;37.572;2024-03-02T07:20:11;101103.19;;;7.07;62.26
20228;BME280;12195;55.790;37.572;2024-03-02T07:22:44;101102.38;;;7.05;62.09
20228;BME280;12195;55.790;37.572;2024-03-02T07:25:17;101102.44;;;7.01;62.31
20228;BME280;12195;55.790;37.572;2024-03-02T07:27:50;101099.93;;;6.96;62.33
20228;BME280;12195;55.790;37.572;2024-03-02T07:30:24;101103.02;;;7.18;63.08
20228;BME280;12195;55.790;37.572;2024-03-02T07:35:51;101094.58;;;7.02;62.16
20228;BME280;12195;55.790;37.572;2024-03-02T07:38:24;101093.72;;;7.03;62.16
20228;BME280;12195;55.790;37.572;2024-03-02T07:40:58;101100.55;;;7.09;62.74
20228;BME280;12195;55.790;37.572;2024-03-02T07:43:32;101096.05;;;7.17;62.90
20228;BME280;12195;55.790;37.572;2024-03-02T07:46:05;101084.53;;;7.28;62.93
20228;BME280;12195;55.790;37.572;2024-03-02T07:48:39;101081.59;;;7.43;62.58
20228;BME280;12195;55.790;37.572;2024-03-02T07:51:12;101078.63;;;7.61;61.88
20228;BME280;12195;55.790;37.572;2024-03-02T07:54:04;101082.23;;;7.95;62.65
20228;BME280;12195;55.790;37.572;2024-03-02T07:56:38;101082.30;;;7.92;60.62
20228;BME280;12195;55.790;37.572;2024-03-02T07:59:11;101078.57;;;8.04;60.36
20228;BME280;12195;55.790;37.572;2024-03-02T08:01:45;101081.81;;;8.13;59.85
20228;BME280;12195;55.790;37.572;2024-03-02T08:04:18;101079.08;;;8.19;58.94
20228;BME280;12195;55.790;37.572;2024-03-02T08:06:51;101075.34;;;8.31;58.94
20228;BME280;12195;55.790;37.572;2024-03-02T08:09:23;101072.53;;;8.38;58.88
20228;BME280;12195;55.790;37.572;2024-03-02T08:11:57;101072.33;;;8.47;58.17
20228;BME280;12195;55.790;37.572;2024-03-02T08:14:30;101062.60;;;8.52;57.64
20228;BME280;12195;55.790;37.572;2024-03-02T08:17:03;101064.22;;;8.58;57.82
20228;BME280;12195;55.790;37.572;2024-03-02T08:19:37;101067.50;;;8.66;57.72
20228;BME280;12195;55.790;37.572;2024-03-02T08:22:11;101063.98;;;8.67;57.02
20228;BME280;12195;55.790;37.572;2024-03-02T08:24:44;101073.77;;;8.94;58.44
20228;BME280;12195;55.790;37.572;2024-03-02T08:27:18;101077.70;;;8.76;57.41
20228;BME280;12195;55.790;37.572;2024-03-02T08:29:52;101082.03;;;8.77;57.43
20228;BME280;12195;55.790;37.572;2024-03-02T08:32:27;101071.63;;;8.74;56.66
20228;BME280;12195;55.790;37.572;2024-03-02T08:35:01;101068.07;;;8.77;56.45
20228;BME280;12195;55.790;37.572;2024-03-02T08:37:35;101072.36;;;8.79;56.35
20228;BME280;12195;55.790;37.572;2024-03-02T08:40:10;101074.21;;;8.76;56.15
20228;BME280;12195;55.790;37.572;2024-03-02T08:42:46;101070.79;;;8.74;55.95
20228;BME280;12195;55.790;37.572;2024-03-02T08:45:19;101063.53;;;8.83;57.21
20228;BME280;12195;55.790;37.572;2024-03-02T08:47:52;101068.56;;;8.92;56.47
20228;BME280;12195;55.790;37.572;2024-03-02T08:50:25;101070.78;;;9.06;56.08
20228;BME280;12195;55.790;37.572;2024-03-02T08:52:58;101073.73;;;9.26;55.76
20228;BME280;12195;55.790;37.572;2024-03-02T08:55:32;101070.58;;;9.45;55.39
20228;BME280;12195;55.790;37.572;2024-03-02T08:58:06;101068.97;;;9.70;55.18
20228;BME280;12195;55.790;37.572;2024-03-02T09:00:40;101067.33;;;9.95;54.31
20228;BME280;12195;55.790;37.572;2024-03-02T09:03:14;101079.44;;;10.28;54.34
20228;BME280;12195;55.790;37.572;2024-03-02T09:05:47;101072.59;;;10.50;52.59
20228;BME280;12195;55.790;37.572;2024-03-02T09:08:20;101066.14;;;10.60;52.12
20228;BME280;12195;55.790;37.572;2024-03-02T09:10:56;101060.02;;;10.60;51.44
20228;BME280;12195;55.790;37.572;2024-03-02T09:13:29;101059.14;;;10.59;51.21
20228;BME280;12195;55.790;37.572;2024-03-02T09:16:02;101055.63;;;10.60;51.16
20228;BME280;12195;55.790;37.572;2024-03-02T09:18:35;101054.86;;;10.57;51.47
20228;BME280;12195;55.790;37.572;2024-03-02T09:21:08;101054.81;;;10.58;51.70
20228;BME280;12195;55.790;37.572;2024-03-02T09:23:42;101049.65;;;10.55;51.18
20228;BME280;12195;55.790;37.572;2024-03-02T09:26:17;101055.63;;;10.60;50.90
20228;BME280;12195;55.790;37.572;2024-03-02T09:28:51;101053.44;;;10.73;50.35
20228;BME280;12195;55.790;37.572;2024-03-02T09:31:24;101055.55;;;10.88;50.46
20228;BME280;12195;55.790;37.572;2024-03-02T09:33:58;101051.39;;;11.07;50.40
20228;BME280;12195;55.790;37.572;2024-03-02T09:36:32;101045.41;;;11.27;49.42
20228;BME280;12195;55.790;37.572;2024-03-02T09:39:07;101045.50;;;11.48;49.06
20228;BME280;12195;55.790;37.572;2024-03-02T09:41:42;101049.64;;;11.54;47.99
20228;BME280;12195;55.790;37.572;2024-03-02T09:44:15;101052.94;;;11.60;48.83
20228;BME280;12195;55.790;37.572;2024-03-02T09:46:51;101051.13;;;11.62;47.93
20228;BME280;12195;55.790;37.572;2024-03-02T09:49:24;101050.67;;;11.50;48.17
20228;BME280;12195;55.790;37.572;2024-03-02T09:51:58;101037.03;;;11.40;48.73
20228;BME280;12195;55.790;37.572;2024-03-02T09:54:31;101041.37;;;11.41;48.96
20228;BME280;12195;55.790;37.572;2024-03-02T09:57:05;101038.45;;;11.26;48.31
20228;BME280;12195;55.790;37.572;2024-03-02T09:59:39;101039.08;;;11.08;48.96
20228;BME280;12195;55.790;37.572;2024-03-02T10:02:12;101035.08;;;10.98;49.35
20228;BME280;12195;55.790;37.572;2024-03-02T10:04:48;101042.05;;;10.98;49.69
20228;BME280;12195;55.790;37.572;2024-03-02T10:07:21;101034.75;;;11.07;48.95
20228;BME280;12195;55.790;37.572;2024-03-02T10:09:55;101040.49;;;11.18;48.94
20228;BME280;12195;55.790;37.572;2024-03-02T10:12:29;101039.67;;;11.16;48.15
20228;BME280;12195;55.790;37.572;2024-03-02T10:15:03;101035.28;;;11.16;47.90
20228;BME280;12195;55.790;37.572;2024-03-02T10:17:41;101044.63;;;11.48;49.33
20228;BME280;12195;55.790;37.572;2024-03-02T10:20:26;101042.41;;;11.13;48.33
20228;BME280;12195;55.790;37.572;2024-03-02T10:23:11;101040.10;;;11.03;48.27
20228;BME280;12195;55.790;37.572;2024-03-02T10:25:45;101038.82;;;10.90;48.48
20228;BME280;12195;55.790;37.572;2024-03-02T10:28:19;101052.12;;;11.11;49.64
20228;BME280;12195;55.790;37.572;2024-03-02T10:30:52;101047.89;;;10.56;48.71
20228;BME280;12195;55.790;37.572;2024-03-02T10:33:27;101046.89;;;10.34;49.66
20228;BME280;12195;55.790;37.572;2024-03-02T10:36:01;101042.98;;;10.19;50.22
20228;BME280;12195;55.790;37.572;2024-03-02T10:38:36;101053.66;;;10.13;50.48
20228;BME280;12195;55.790;37.572;2024-03-02T10:41:11;101053.13;;;10.02;49.80
20228;BME280;12195;55.790;37.572;2024-03-02T10:43:47;101055.16;;;9.93;50.24
20228;BME280;12195;55.790;37.572;2024-03-02T10:46:21;101059.86;;;9.82;50.57
20228;BME280;12195;55.790;37.572;2024-03-02T10:48:58;101061.73;;;9.78;51.12
20228;BME280;12195;55.790;37.572;2024-03-02T10:51:33;101059.11;;;9.78;51.69
20228;BME280;12195;55.790;37.572;2024-03-02T10:54:08;101062.73;;;9.74;51.69
20228;BME280;12195;55.790;37.572;2024-03-02T10:56:43;101062.17;;;9.63;52.57
20228;BME280;12195;55.790;37.572;2024-03-02T10:59:40;101056.17;;;9.60;52.46
20228;BME280;12195;55.790;37.572;2024-03-02T11:02:10;101063.09;;;9.62;52.22
20228;BME280;12195;55.790;37.572;2024-03-02T11:04:47;101061.98;;;9.69;51.78
20228;BME280;12195;55.790;37.572;2024-03-02T11:07:23;101065.23;;;9.77;51.60
20228;BME280;12195;55.790;37.572;2024-03-02T11:10:01;101066.02;;;9.81;51.44
20228;BME280;12195;55.790;37.572;2024-03-02T11:12:53;101058.12;;;9.82;50.68
20228;BME280;12195;55.790;37.572;2024-03-02T11:15:25;101051.88;;;9.86;51.44
20228;BME280;12195;55.790;37.572;2024-03-02T11:18:00;101044.00;;;9.86;51.30
20228;BME280;12195;55.790;37.572;2024-03-02T11:20:45;101055.30;;;9.88;51.19
20228;BME280;12195;55.790;37.572;2024-03-02T11:23:11;101050.00;;;9.90;51.09
20228;BME280;12195;55.790;37.572;2024-03-02T11:25:44;101056.00;;;9.93;51.48
20228;BME280;12195;55.790;37.572;2024-03-02T11:28:23;101055.92;;;9.96;51.53
20228;BME280;12195;55.790;37.572;2024-03-02T11:30:55;101057.67;;;9.96;50.69
20228;BME280;12195;55.790;37.572;2024-03-02T11:33:28;101058.62;;;9.93;50.41
20228;BME280;12195;55.790;37.572;2024-03-02T11:36:02;101051.04;;;9.84;49.76
20228;BME280;12195;55.790;37.572;2024-03-02T11:38:36;101052.95;;;9.79;50.29
20228;BME280;12195;55.790;37.572;2024-03-02T11:41:09;101047.70;;;10.08;51.50
20228;BME280;12195;55.790;37.572;2024-03-02T11:43:42;101048.66;;;9.77;49.79
20228;BME280;12195;55.790;37.572;2024-03-02T11:46:16;101030.34;;;9.75;49.13
20228;BME280;12195;55.790;37.572;2024-03-02T11:48:52;101035.50;;;9.78;50.55
20228;BME280;12195;55.790;37.572;2024-03-02T11:51:28;101035.50;;;9.78;49.76
20228;BME280;12195;55.790;37.572;2024-03-02T11:54:03;101039.08;;;9.76;49.83
20228;BME280;12195;55.790;37.572;2024-03-02T11:56:36;101030.42;;;9.72;49.65
20228;BME280;12195;55.790;37.572;2024-03-02T11:59:10;101038.45;;;9.68;50.56
20228;BME280;12195;55.790;37.572;2024-03-02T12:01:46;101035.95;;;9.63;51.10
20228;BME280;12195;55.790;37.572;2024-03-02T12:04:21;101038.77;;;9.57;51.17
20228;BME280;12195;55.790;37.572;2024-03-02T12:06:58;101038.89;;;9.53;51.58
20228;BME280;12195;55.790;37.572;2024-03-02T12:09:35;101038.13;;;9.49;51.21
20228;BME280;12195;55.790;37.572;2024-03-02T12:12:09;101042.73;;;9.41;50.68
20228;BME280;12195;55.790;37.572;2024-03-02T12:14:51;101038.59;;;9.33;51.06
20228;BME280;12195;55.790;37.572;2024-03-02T12:17:26;101038.90;;;9.22;51.05
20228;BME280;12195;55.790;37.572;2024-03-02T12:20:00;101035.55;;;9.17;51.78
20228;BME280;12195;55.790;37.572;2024-03-02T12:22:35;101035.81;;;9.08;51.76
20228;BME280;12195;55.790;37.572;2024-03-02T12:25:09;101035.96;;;9.02;51.60
20228;BME280;12195;55.790;37.572;2024-03-02T12:27:43;101047.60;;;8.92;52.25
20228;BME280;12195;55.790;37.572;2024-03-02T12:30:18;101046.94;;;8.84;52.05
20228;BME280;12195;55.790;37.572;2024-03-02T12:32:51;101050.61;;;8.77;52.24
20228;BME280;12195;55.790;37.572;2024-03-02T12:35:25;101055.17;;;9.03;52.95
20228;BME280;12195;55.790;37.572;2024-03-02T12:37:59;101039.33;;;8.75;52.97
20228;BME280;12195;55.790;37.572;2024-03-02T12:40:34;101052.53;;;8.71;53.32
20228;BME280;12195;55.790;37.572;2024-03-02T12:43:30;101040.37;;;8.68;52.97
20228;BME280;12195;55.790;37.572;2024-03-02T12:46:04;101045.61;;;8.68;53.75
20228;BME280;12195;55.790;37.572;2024-03-02T12:48:37;101042.19;;;8.65;53.39
20228;BME280;12195;55.790;37.572;2024-03-02T12:51:11;101035.31;;;8.61;53.29
20228;BME280;12195;55.790;37.572;2024-03-02T12:53:54;101042.40;;;8.57;54.16
20228;BME280;12195;55.790;37.572;2024-03-02T12:56:28;101040.76;;;8.53;54.25
20228;BME280;12195;55.790;37.572;2024-03-02T12:59:01;101045.28;;;8.47;53.95
20228;BME280;12195;55.790;37.572;2024-03-02T13:01:35;101043.67;;;8.41;54.58
20228;BME280;12195;55.790;37.572;2024-03-02T13:04:09;101048.97;;;8.38;55.02
20228;BME280;12195;55.790;37.572;2024-03-02T13:06:42;101050.78;;;8.36;55.10
20228;BME280;12195;55.790;37.572;2024-03-02T13:09:15;101052.69;;;8.30;54.91
20228;BME280;12195;55.790;37.572;2024-03-02T13:11:49;101054.56;;;8.25;55.06
20228;BME280;12195;55.790;37.572;2024-03-02T13:14:39;101057.24;;;8.20;55.69
20228;BME280;12195;55.790;37.572;2024-03-02T13:17:13;101060.92;;;8.12;54.43
20228;BME280;12195;55.790;37.572;2024-03-02T13:19:56;101066.33;;;8.04;54.36
20228;BME280;12195;55.790;37.572;2024-03-02T13:22:34;101071.78;;;7.95;55.13
20228;BME280;12195;55.790;37.572;2024-03-02T13:25:08;101077.16;;;7.89;55.70